Humidity-temperature Sensor

Selected Measurement Type: Air Temperature

 
Air Temperature [°C]     6 entries per hour
Showing data from 9/5/2018 (00:00:00 Z) to 8/29/2018 (00:01:00 Z)
Previous Next [ Day | 3-Days | 7-Days ]
First Last
Prev [ Day | 3-Days | 7-Days ] Next
First Last

Start Time:     :
End Time:     :     
Time (in GMT) :00 :50 :40 :30 :20 :10
Previous Next [ Day | 3-Days | 7-Days ]
First Last
Prev [ Day | 3-Days | 7-Days ] Next
First Last


123 => good data
MM => data is determined as missing
-- => data not received/configured
Back to Top Back to Top
9/5/2018 00:00 to 23:10 24.13 23.97 24.12 24.00 24.12 24.07
9/4/2018 23:00 to 22:10 23.96 24.14 23.93 24.02 23.94 24.04
9/4/2018 22:00 to 21:10 23.96 23.98 24.01 24.08 24.04 24.05
9/4/2018 21:00 to 20:10 24.09 23.91 23.92 23.94 24.02 23.88
9/4/2018 20:00 to 19:10 24.03 24.01 23.90 23.90 23.88 23.96
9/4/2018 19:00 to 18:10 23.94 24.04 24.02 23.96 23.98 23.98
9/4/2018 18:00 to 17:10 24.08 23.95 24.05 24.13 23.95 24.11
9/4/2018 17:00 to 16:10 24.18 24.14 24.21 24.18 24.27 24.32
9/4/2018 16:00 to 15:10 24.30 24.31 24.21 24.24 24.18 24.15
9/4/2018 15:00 to 14:10 24.05 24.00 23.79 23.69 23.75 23.65
9/4/2018 14:00 to 13:10 23.58 23.61 23.65 23.57 23.60 23.56
9/4/2018 13:00 to 12:10 23.67 23.59 23.55 23.52 23.64 23.61
9/4/2018 12:00 to 11:10 23.70 23.63 23.56 23.61 23.62 23.54
9/4/2018 11:00 to 10:10 23.68 23.54 23.72 23.65 23.80 23.90
9/4/2018 10:00 to 9:10 23.93 23.79 24.05 23.93 23.91 23.93
9/4/2018 09:00 to 8:10 23.81 23.99 23.97 24.11 23.98 23.93
9/4/2018 08:00 to 7:10 23.95 23.93 24.11 24.21 24.16 24.13
9/4/2018 07:00 to 6:10 24.12 24.10 24.11 24.18 24.11 24.17
9/4/2018 06:00 to 5:10 24.06 24.04 24.02 24.15 24.04 24.11
9/4/2018 05:00 to 4:10 24.04 24.09 24.01 24.06 24.22 23.96
9/4/2018 04:00 to 3:10 24.11 24.02 24.17 24.13 24.04 24.08
9/4/2018 03:00 to 2:10 24.01 24.03 23.99 24.00 24.00 24.07
9/4/2018 02:00 to 1:10 24.09 24.08 24.13 24.15 24.19 24.03
9/4/2018 01:00 to 0:10 24.11 24.01 24.21 24.16 24.14 24.03
9/4/2018 00:00 to 23:10 24.13 24.11 24.15 24.13 24.15 24.23
9/3/2018 23:00 to 22:10 24.20 24.26 24.15 24.23 24.15 24.19
9/3/2018 22:00 to 21:10 24.15 24.10 24.02 24.00 23.97 23.99
9/3/2018 21:00 to 20:10 23.94 23.99 24.01 24.05 23.92 24.05
9/3/2018 20:00 to 19:10 24.17 24.04 24.11 24.11 24.17 24.13
9/3/2018 19:00 to 18:10 24.27 24.22 24.31 24.34 24.40 24.46
9/3/2018 18:00 to 17:10 24.28 24.30 24.30 24.26 24.29 24.19
9/3/2018 17:00 to 16:10 24.23 24.20 24.27 24.29 24.32 24.26
9/3/2018 16:00 to 15:10 24.26 24.27 24.32 24.18 24.24 24.21
9/3/2018 15:00 to 14:10 24.07 23.99 23.95 23.76 23.75 23.68
9/3/2018 14:00 to 13:10 23.86 23.79 23.81 23.82 23.76 23.83
9/3/2018 13:00 to 12:10 23.88 23.96 23.92 23.85 23.89 23.94
9/3/2018 12:00 to 11:10 23.84 23.79 23.88 23.91 23.73 23.76
9/3/2018 11:00 to 10:10 23.70 23.85 23.79 23.77 23.73 23.83
9/3/2018 10:00 to 9:10 23.74 23.79 23.83 23.83 23.85 23.85
9/3/2018 09:00 to 8:10 23.75 23.78 23.88 23.95 23.82 23.90
9/3/2018 08:00 to 7:10 23.81 23.95 24.02 24.02 23.93 24.01
9/3/2018 07:00 to 6:10 23.97 24.00 24.08 24.12 24.00 24.15
9/3/2018 06:00 to 5:10 24.09 24.02 24.04 24.02 23.99 24.07
9/3/2018 05:00 to 4:10 24.17 24.15 24.14 24.11 24.11 24.15
9/3/2018 04:00 to 3:10 24.23 24.00 24.17 24.09 24.06 24.23
9/3/2018 03:00 to 2:10 24.08 24.10 24.30 24.22 24.27 24.20
9/3/2018 02:00 to 1:10 24.29 24.40 24.30 24.30 24.54 24.44
9/3/2018 01:00 to 0:10 24.35 24.34 24.26 24.18 24.29 24.30
9/3/2018 00:00 to 23:10 24.30 24.27 24.28 24.28 24.46 24.32
9/2/2018 23:00 to 22:10 24.34 24.31 24.42 24.56 24.48 24.63
9/2/2018 22:00 to 21:10 24.61 24.62 24.39 24.42 24.41 24.18
9/2/2018 21:00 to 20:10 24.00 24.17 24.06 24.35 24.29 24.33
9/2/2018 20:00 to 19:10 24.36 24.29 24.30 24.36 24.14 24.10
9/2/2018 19:00 to 18:10 24.21 24.16 24.16 24.13 24.15 24.25
9/2/2018 18:00 to 17:10 24.21 24.16 24.12 24.22 24.22 24.23
9/2/2018 17:00 to 16:10 24.20 24.25 24.21 24.19 24.13 24.37
9/2/2018 16:00 to 15:10 24.21 24.24 24.30 24.33 24.37 24.14
9/2/2018 15:00 to 14:10 23.96 23.95 23.96 23.77 23.89 23.82
9/2/2018 14:00 to 13:10 23.78 23.84 23.91 23.79 23.92 23.96
9/2/2018 13:00 to 12:10 23.79 23.89 23.80 23.82 23.76 23.84
9/2/2018 12:00 to 11:10 -- -- -- -- -- --
9/2/2018 11:00 to 10:10 23.97 23.93 24.01 24.01 24.00 23.89
9/2/2018 10:00 to 9:10 23.89 23.95 24.00 23.99 24.04 24.11
9/2/2018 09:00 to 8:10 24.00 24.07 24.04 24.11 24.09 24.29
9/2/2018 08:00 to 7:10 24.23 24.23 24.19 24.08 24.30 24.27
9/2/2018 07:00 to 6:10 24.29 24.30 24.31 24.36 24.26 24.06
9/2/2018 06:00 to 5:10 24.29 24.23 24.30 24.36 23.90 24.22
9/2/2018 05:00 to 4:10 24.13 24.11 24.14 23.99 23.85 23.78
9/2/2018 04:00 to 3:10 23.77 23.76 23.89 23.97 24.06 24.05
9/2/2018 03:00 to 2:10 24.14 24.10 24.08 24.10 24.05 24.07
9/2/2018 02:00 to 1:10 24.03 24.06 24.19 24.07 24.04 24.09
9/2/2018 01:00 to 0:10 24.07 24.06 24.06 24.13 24.19 24.08
9/2/2018 00:00 to 23:10 24.13 24.10 24.01 24.00 24.10 23.97
9/1/2018 23:00 to 22:10 24.01 24.03 24.03 23.92 23.95 23.94
9/1/2018 22:00 to 21:10 24.02 24.11 23.93 23.96 23.90 23.97
9/1/2018 21:00 to 20:10 24.04 23.89 23.99 23.89 23.92 23.89
9/1/2018 20:00 to 19:10 23.88 23.98 23.89 23.88 23.87 23.95
9/1/2018 19:00 to 18:10 23.93 23.85 23.86 23.89 23.99 23.94
9/1/2018 18:00 to 17:10 23.89 23.98 24.03 23.96 24.13 24.03
9/1/2018 17:00 to 16:10 24.00 24.05 24.13 24.11 23.89 24.07
9/1/2018 16:00 to 15:10 24.04 24.10 23.81 23.82 24.02 23.90
9/1/2018 15:00 to 14:10 23.99 23.76 23.70 23.71 23.70 23.69
9/1/2018 14:00 to 13:10 23.66 23.58 23.76 23.79 23.69 23.64
9/1/2018 13:00 to 12:10 23.71 23.75 23.71 23.63 23.62 23.61
9/1/2018 12:00 to 11:10 23.65 23.72 23.75 23.75 23.66 23.85
9/1/2018 11:00 to 10:10 23.79 23.76 23.78 23.73 23.77 23.76
9/1/2018 10:00 to 9:10 23.76 23.86 23.83 23.91 23.79 23.89
9/1/2018 09:00 to 8:10 23.92 24.02 24.02 23.93 23.97 23.96
9/1/2018 08:00 to 7:10 23.98 24.00 23.87 23.94 23.96 24.06
9/1/2018 07:00 to 6:10 24.04 23.98 24.06 24.03 23.95 24.01
9/1/2018 06:00 to 5:10 23.99 23.93 23.96 24.03 24.10 24.04
9/1/2018 05:00 to 4:10 23.99 24.07 24.10 24.11 24.19 24.16
9/1/2018 04:00 to 3:10 24.03 24.18 24.04 23.98 24.09 24.17
9/1/2018 03:00 to 2:10 24.13 24.14 24.08 24.07 24.12 24.16
9/1/2018 02:00 to 1:10 24.14 24.13 24.19 24.14 24.25 24.17
9/1/2018 01:00 to 0:10 24.36 24.25 24.26 24.27 24.35 24.30
9/1/2018 00:00 to 23:10 24.29 24.29 24.24 24.20 24.27 24.33
8/31/2018 23:00 to 22:10 24.17 24.27 24.13 24.10 24.13 24.14
8/31/2018 22:00 to 21:10 24.13 24.16 24.13 24.20 24.07 24.10
8/31/2018 21:00 to 20:10 24.02 24.04 24.04 24.11 24.21 24.13
8/31/2018 20:00 to 19:10 24.16 24.19 24.14 24.24 24.21 24.18
8/31/2018 19:00 to 18:10 24.21 24.11 24.21 24.25 24.10 24.22
8/31/2018 18:00 to 17:10 24.26 24.14 24.19 24.30 24.29 24.34
8/31/2018 17:00 to 16:10 24.22 24.54 24.35 24.33 24.24 24.29
8/31/2018 16:00 to 15:10 24.35 24.18 24.26 24.20 24.03 23.96
8/31/2018 15:00 to 14:10 24.10 24.06 24.18 24.02 24.00 23.89
8/31/2018 14:00 to 13:10 23.97 23.94 24.00 23.93 23.99 23.95
8/31/2018 13:00 to 12:10 24.00 23.95 24.03 24.13 24.16 24.08
8/31/2018 12:00 to 11:10 24.16 24.22 24.29 24.41 24.55 24.56
8/31/2018 11:00 to 10:10 24.72 24.64 24.46 24.45 24.52 24.13
8/31/2018 10:00 to 9:10 23.92 23.87 23.89 23.70 23.67 23.68
8/31/2018 09:00 to 8:10 23.56 23.36 23.76 23.67 23.37 23.47
8/31/2018 08:00 to 7:10 23.28 23.14 23.04 23.01 22.65 23.66
8/31/2018 07:00 to 6:10 23.47 23.76 23.95 23.98 24.12 24.17
8/31/2018 06:00 to 5:10 23.73 23.99 23.96 24.21 24.39 24.78
8/31/2018 05:00 to 4:10 24.76 24.89 24.75 24.85 24.75 24.74
8/31/2018 04:00 to 3:10 24.74 24.80 24.76 24.82 24.87 24.75
8/31/2018 03:00 to 2:10 24.83 24.94 24.79 24.81 24.72 24.65
8/31/2018 02:00 to 1:10 24.78 24.74 24.76 24.78 24.79 24.86
8/31/2018 01:00 to 0:10 24.81 24.87 24.81 24.78 24.83 24.81
8/31/2018 00:00 to 23:10 24.84 24.77 24.72 24.81 24.82 24.70
8/30/2018 23:00 to 22:10 24.66 24.83 24.78 24.68 24.79 24.96
8/30/2018 22:00 to 21:10 24.65 24.64 24.73 24.66 24.67 24.51
8/30/2018 21:00 to 20:10 24.63 24.57 24.62 24.50 24.60 24.46
8/30/2018 20:00 to 19:10 24.53 24.59 24.50 24.60 24.73 24.54
8/30/2018 19:00 to 18:10 24.49 24.61 24.55 24.51 24.59 24.65
8/30/2018 18:00 to 17:10 24.57 24.66 24.68 24.60 24.72 24.62
8/30/2018 17:00 to 16:10 24.53 24.55 24.56 24.62 24.61 24.60
8/30/2018 16:00 to 15:10 24.65 24.52 24.65 24.50 24.57 24.67
8/30/2018 15:00 to 14:10 24.39 24.22 24.36 24.09 23.97 24.26
8/30/2018 14:00 to 13:10 24.14 24.10 24.16 23.87 23.67 23.03
8/30/2018 13:00 to 12:10 24.05 24.49 24.43 24.28 24.28 24.17
8/30/2018 12:00 to 11:10 24.21 24.24 24.16 24.17 24.17 24.25
8/30/2018 11:00 to 10:10 24.16 24.27 24.23 24.16 24.22 24.27
8/30/2018 10:00 to 9:10 24.23 24.20 24.23 24.25 24.50 24.49
8/30/2018 09:00 to 8:10 24.29 24.40 24.41 24.48 24.54 24.35
8/30/2018 08:00 to 7:10 24.51 24.38 24.37 24.51 24.46 24.38
8/30/2018 07:00 to 6:10 24.36 24.30 24.36 24.48 24.37 24.45
8/30/2018 06:00 to 5:10 24.49 24.49 24.59 24.40 24.48 24.60
8/30/2018 05:00 to 4:10 24.55 24.58 24.56 24.48 24.49 24.56
8/30/2018 04:00 to 3:10 24.53 24.52 24.49 24.57 24.64 24.43
8/30/2018 03:00 to 2:10 24.57 24.52 24.39 24.60 24.44 24.42
8/30/2018 02:00 to 1:10 24.42 24.54 24.48 24.54 24.52 24.53
8/30/2018 01:00 to 0:10 24.69 24.62 24.64 24.49 24.63 24.66
8/30/2018 00:00 to 23:10 24.51 24.65 24.55 24.78 24.80 24.56
8/29/2018 23:00 to 22:10 24.74 24.63 24.70 24.56 24.54 24.75
8/29/2018 22:00 to 21:10 24.55 24.66 24.56 24.67 24.62 24.54
8/29/2018 21:00 to 20:10 24.50 24.70 24.55 24.60 24.67 24.50
8/29/2018 20:00 to 19:10 24.67 24.61 24.80 24.70 24.71 24.68
8/29/2018 19:00 to 18:10 24.55 24.56 24.70 24.43 24.59 24.52
8/29/2018 18:00 to 17:10 24.55 24.77 24.63 24.61 24.57 24.51
8/29/2018 17:00 to 16:10 24.55 24.80 24.71 24.54 24.65 24.35
8/29/2018 16:00 to 15:10 24.60 24.57 24.65 24.72 24.60 24.37
8/29/2018 15:00 to 14:10 24.51 24.36 24.30 24.37 24.24 24.22
8/29/2018 14:00 to 13:10 24.26 24.19 24.19 24.29 24.29 24.37
8/29/2018 13:00 to 12:10 24.13 24.14 24.27 24.31 24.28 24.13
8/29/2018 12:00 to 11:10 24.17 24.41 24.23 24.14 24.23 24.20
8/29/2018 11:00 to 10:10 24.18 24.16 24.12 24.22 24.13 24.29
8/29/2018 10:00 to 9:10 24.23 24.21 24.29 24.28 24.19 24.43
8/29/2018 09:00 to 8:10 24.41 24.50 24.42 24.48 24.48 24.42
8/29/2018 08:00 to 7:10 24.50 24.54 24.57 24.46 24.38 24.50
8/29/2018 07:00 to 6:10 24.55 24.68 24.62 24.49 24.63 24.51
8/29/2018 06:00 to 5:10 24.58 24.63 24.56 24.65 24.51 24.48
8/29/2018 05:00 to 4:10 24.46 24.51 24.40 24.44 24.59 24.61
8/29/2018 04:00 to 3:10 24.55 24.54 24.54 24.52 24.40 24.60
8/29/2018 03:00 to 2:10 24.55 24.40 24.61 24.54 24.54 24.51
8/29/2018 02:00 to 1:10 24.61 24.53 24.82 24.61 24.58 24.48
8/29/2018 01:00 to 0:10 24.58 24.57 24.71 24.76 24.51 24.71